• Join FlightAware (Why Join?)
  • Login
  • US Flag 
10:00AM EST


 

Airport Tracker/Info


-or-


 

Live Flight TrackerFlight Track Log ✈ JBU1329 ✈ 16-Jun-2013 ✈ KBOS - KBWI

Flight Track Log - Related Links

Times and Time Zones

All times are in EDT time to prevent confusion due to time zone crossing. See the JBU1329 flight status page for this flight to view local times or setup timezone preferences in your user account.

Time Position Orientation Groundspeed Altitude Reporting Facility
EDT Latitude Longitude Course Direction KTS MPH feet Rate Location/Type
09:11AM 42.3500 -71.0167 262° West 156 180 800  Level KA90
09:13AM 42.3610 -70.7289 172° South  Level FlightAware Approximate
09:13AM 42.3286 -70.8394 99° East 271 312 6,400  Level Boston Center
09:14AM 42.2712 -70.7599 228° Southwest  Level FlightAware Approximate
09:14AM 42.3064 -70.7389 107° East 269 310 9,500  Level Boston Center
09:15AM 42.2092 -70.8729 240° Southwest  Level FlightAware Approximate
09:15AM 42.2208 -70.7300 176° South 229 264 11,500  Level Boston Center
09:16AM 42.1796 -71.0045 262° West  Level FlightAware Approximate
09:16AM 42.1744 -70.8350 239° Southwest 212 244 13,900  Level Boston Center
09:17AM 42.1614 -70.9472 261° West 256 295 15,800 2,280 Climbing Boston Center
09:18AM 42.1442 -71.0819 260° West 317 365 18,500 3,120 Climbing Boston Center
09:19AM 42.1311 -71.2056 262° West 337 388 22,100 2,880 Climbing Boston Center
09:20AM 42.1178 -71.3233 261° West 330 380 24,300 1,920 Climbing Boston Center
09:21AM 42.1042 -71.4411 261° West 325 374 26,000 840 Climbing Boston Center
09:22AM 42.0906 -71.5617 261° West 325 374 26,000  Level Boston Center
09:23AM 42.0728 -71.6681 257° West 325 374 26,000  Level Boston Center
09:24AM 42.0567 -71.7914 260° West 330 380 26,000 240 Level Boston Center
09:25AM 42.0386 -71.9258 260° West 347 399 26,500 900 Climbing Boston Center
09:26AM 42.0206 -72.0683 260° West 376 433 27,900 720 Climbing Boston Center
09:27AM 41.9728 -72.2028 244° Southwest 399 459 28,000  Climbing Boston Center
09:28AM 41.9086 -72.3286 236° Southwest 399 459 28,000  Level Boston Center
09:29AM 41.8461 -72.4569 237° Southwest 405 466 28,000  Level Boston Center
09:30AM 41.7833 -72.5819 236° Southwest 410 472 28,000  Level Boston Center
09:31AM 41.7228 -72.7072 237° Southwest 416 479 28,000  Level Boston Center
09:32AM 41.6600 -72.8319 236° Southwest 416 479 28,000  Level Boston Center
09:33AM 41.5969 -72.9564 236° Southwest 416 479 28,000  Level Boston Center
09:34AM 41.5358 -73.0833 237° Southwest 421 484 28,000  Level Boston Center
09:36AM 41.3978 -73.3544 236° Southwest 407 468 28,000  Level New York Center
09:37AM 41.3347 -73.4789 236° Southwest 413 475 28,000  Level New York Center
09:38AM 41.2692 -73.6061 236° Southwest 413 475 28,000  Level New York Center
09:39AM 41.1975 -73.7272 232° Southwest 418 481 28,000  Level New York Center
09:40AM 41.1278 -73.8453 232° Southwest 418 481 28,000  Level New York Center
09:41AM 41.0581 -73.9658 233° Southwest 423 487 28,000  Level New York Center
09:42AM 40.9861 -74.0833 231° Southwest 423 487 28,000  Level New York Center
09:43AM 40.9119 -74.2006 230° Southwest 423 487 28,000  Level New York Center
09:44AM 40.8397 -74.3175 231° Southwest 423 487 28,000  Level New York Center
09:45AM 40.7692 -74.4372 232° Southwest 423 487 28,000 -360 Level New York Center
09:46AM 40.6969 -74.5539 231° Southwest 423 487 27,300 -840 Descending New York Center
09:47AM 40.6264 -74.6703 231° Southwest 423 487 26,400 -960 Descending New York Center
09:48AM 40.5625 -74.7758 231° Southwest 417 480 25,400 -1,020 Descending New York Center
09:49AM 40.4858 -74.8806 226° Southwest 412 474 24,400 -1,020 Descending New York Center
09:50AM 40.4133 -74.9853 228° Southwest 400 460 23,400 -1,020 Descending New York Center
09:51AM 40.3389 -75.0894 227° Southwest 400 460 22,400 -1,020 Descending New York Center
09:52AM 40.2661 -75.1939 228° Southwest 400 460 21,400 -1,020 Descending New York Center
09:53AM 40.1956 -75.2925 227° Southwest 400 460 20,400 -1,020 Descending New York Center
09:54AM 40.1253 -75.3883 226° Southwest 389 448 19,400 -1,020 Descending New York Center
09:55AM 40.0439 -75.4969 226° Southwest 384 442 18,400 -720 Descending New York Center
09:56AM 39.9753 -75.5925 227° Southwest 374 430 18,000 -240 Descending New York Center
09:57AM 39.9156 -75.6806 229° Southwest 368 423 18,000 -60 Level New York Center
09:58AM 39.8542 -75.7978 236° Southwest 363 418 17,900 -1,020 Descending New York Center
09:59AM 39.8019 -75.8994 236° Southwest 354 407 16,000 -1,980 Descending New York Center
10:01AM 39.7167 -76.0500 234° Southwest 329 379 12,900 -1,560 Descending Potomac TRACON
10:02AM 39.6667 -76.1667 241° Southwest 324 373 11,900 -960 Descending Potomac TRACON
10:03AM 39.6000 -76.2333 218° Southwest 293 337 11,000 -1,020 Descending Potomac TRACON
10:04AM 39.5500 -76.2833 218° Southwest 282 325 10,000 -1,020 Descending Potomac TRACON
10:05AM 39.4833 -76.3500 218° Southwest 279 321 9,100 -1,080 Descending Potomac TRACON
10:06AM 39.4333 -76.4000 218° Southwest 276 318 8,000 -1,080 Descending Potomac TRACON
10:07AM 39.3500 -76.4167 189° South 279 321 7,000 -960 Descending Potomac TRACON
10:07AM 39.3000 -76.4000 166° South 247 284 6,200 -1,200 Descending Potomac TRACON
10:08AM 39.2333 -76.4000 180° South 234 269 4,800 -1,500 Descending Potomac TRACON
10:10AM 39.1667 -76.4000 180° South 225 259 3,200 -1,200 Descending Potomac TRACON
10:11AM 39.1167 -76.4333 207° Southwest 209 241 2,400 -660 Descending Potomac TRACON
10:11AM 39.0833 -76.4833 229° Southwest 201 231 2,000 -480 Descending Potomac TRACON
10:12AM 39.0833 -76.5500 270° West 187 215 1,500 -300 Descending Potomac TRACON
10:13AM 39.1000 -76.6000 293° West 174 200 1,500 -360 Level Potomac TRACON
10:14AM 39.1333 -76.6333 322° Northwest 136 157 800 -720 Descending Potomac TRACON
10:16AM 39.1667 -76.6667 270° West  Level FlightAware Approximate